createdAt,value
2023-03-11T00:00:13.583Z,1.50
2023-03-11T00:08:19.714Z,1.17
2023-03-11T00:12:22.111Z,1.48
2023-03-11T00:16:23.946Z,1.60
2023-03-11T00:20:32.546Z,1.65
2023-03-11T00:24:34.679Z,1.45
2023-03-11T00:28:36.511Z,1.50
2023-03-11T00:32:38.515Z,1.38
2023-03-11T00:36:40.328Z,1.13
2023-03-11T00:40:43.026Z,1.55
2023-03-11T00:44:44.831Z,1.45
2023-03-11T00:48:46.699Z,1.52
2023-03-11T00:52:49.881Z,1.50
2023-03-11T00:56:51.764Z,1.30
2023-03-11T01:00:53.849Z,1.48
2023-03-11T01:04:56.749Z,1.42
2023-03-11T01:08:58.706Z,1.42
2023-03-11T01:13:00.795Z,1.40
2023-03-11T01:17:02.611Z,1.15
2023-03-11T01:21:04.745Z,1.10
2023-03-11T01:25:07.828Z,0.90
2023-03-11T01:29:09.591Z,1.30
2023-03-11T01:33:17.661Z,1.20
2023-03-11T01:37:20.286Z,0.95
2023-03-11T01:41:22.803Z,1.10
2023-03-11T01:45:52.067Z,1.00
2023-03-11T01:49:57.537Z,1.02
2023-03-11T01:54:05.036Z,0.88
2023-03-11T01:58:11.246Z,0.90
2023-03-11T02:02:32.555Z,1.10
2023-03-11T02:06:35.207Z,1.20
2023-03-11T02:10:41.030Z,1.00
2023-03-11T02:14:51.167Z,0.98
2023-03-11T02:18:53.202Z,1.00
2023-03-11T02:22:57.300Z,0.90
2023-03-11T02:27:09.212Z,0.90
2023-03-11T02:31:11.585Z,0.90
2023-03-11T02:35:14.974Z,0.90
2023-03-11T02:39:16.974Z,1.00
2023-03-11T02:43:24.985Z,1.38
2023-03-11T02:47:27.666Z,1.00
2023-03-11T02:51:30.030Z,0.90
2023-03-11T02:55:32.250Z,0.93
2023-03-11T02:59:35.238Z,0.98
2023-03-11T03:03:37.658Z,1.10
2023-03-11T03:07:39.911Z,1.00
2023-03-11T03:11:41.925Z,1.10
2023-03-11T03:15:44.401Z,1.10
2023-03-11T03:19:46.380Z,1.10
2023-03-11T03:23:48.682Z,1.30
2023-03-11T03:27:51.178Z,1.30
2023-03-11T03:31:53.829Z,1.33
2023-03-11T03:35:56.610Z,1.35
2023-03-11T03:40:07.834Z,1.10
2023-03-11T03:44:10.377Z,1.23
2023-03-11T03:48:12.585Z,1.08
2023-03-11T03:52:18.568Z,1.02
2023-03-11T03:56:20.492Z,1.17
2023-03-11T04:00:22.378Z,1.30
2023-03-11T04:04:31.077Z,1.42
2023-03-11T04:08:33.617Z,1.38
2023-03-11T04:12:35.656Z,1.20
2023-03-11T04:16:38.119Z,1.55
2023-03-11T04:20:45.085Z,1.38
2023-03-11T04:24:47.692Z,1.42
2023-03-11T04:28:50.152Z,1.20
2023-03-11T04:32:53.289Z,1.58
2023-03-11T04:36:55.668Z,1.40
2023-03-11T04:41:06.016Z,1.70
2023-03-11T04:45:11.272Z,1.27
2023-03-11T04:49:14.731Z,1.48
2023-03-11T04:53:17.181Z,1.23
2023-03-11T04:57:19.466Z,1.40
2023-03-11T05:01:22.985Z,1.50
2023-03-11T05:05:25.914Z,1.48
2023-03-11T05:09:28.016Z,1.58
2023-03-11T05:13:30.304Z,1.20
2023-03-11T05:17:32.962Z,1.60
2023-03-11T05:21:35.193Z,1.60
2023-03-11T05:25:37.322Z,1.83
2023-03-11T05:29:40.209Z,1.52
2023-03-11T05:33:45.096Z,1.55
2023-03-11T05:37:49.917Z,1.30
2023-03-11T05:41:53.856Z,1.65
2023-03-11T05:45:55.756Z,1.50
2023-03-11T05:49:57.932Z,1.30
2023-03-11T05:54:00.530Z,1.45
2023-03-11T05:58:11.133Z,1.40
2023-03-11T06:02:13.010Z,1.80
2023-03-11T06:06:15.758Z,1.50
2023-03-11T06:10:18.071Z,1.55
2023-03-11T06:14:20.863Z,1.75
2023-03-11T06:18:28.520Z,1.70
2023-03-11T06:22:30.478Z,2.17
2023-03-11T06:26:32.425Z,1.20
2023-03-11T06:30:34.287Z,1.60
2023-03-11T06:34:42.924Z,1.70
2023-03-11T06:38:46.565Z,1.50
2023-03-11T06:42:49.668Z,1.40
2023-03-11T06:46:53.096Z,1.52
2023-03-11T06:50:59.243Z,1.60
2023-03-11T06:55:04.120Z,1.73
2023-03-11T06:59:07.128Z,1.30
2023-03-11T07:03:09.887Z,1.33
2023-03-11T07:07:11.828Z,1.50
2023-03-11T07:11:16.777Z,1.48
2023-03-11T07:15:23.935Z,1.40
2023-03-11T07:19:26.050Z,1.60
2023-03-11T07:23:32.007Z,1.40
2023-03-11T07:27:34.194Z,1.48
2023-03-11T07:31:38.285Z,1.70
2023-03-11T07:35:40.433Z,1.40
2023-03-11T07:39:42.241Z,1.80
2023-03-11T07:43:44.379Z,1.50
2023-03-11T07:47:46.191Z,1.85
2023-03-11T07:51:47.971Z,1.63
2023-03-11T07:55:55.739Z,1.60
2023-03-11T07:59:57.547Z,1.70
2023-03-11T08:03:59.471Z,1.65
2023-03-11T08:08:01.292Z,1.80
2023-03-11T08:12:03.098Z,1.90
2023-03-11T08:16:06.381Z,1.83
2023-03-11T08:20:09.489Z,1.60
2023-03-11T08:24:13.615Z,1.70
2023-03-11T08:28:16.146Z,1.50
2023-03-11T08:32:17.958Z,1.75
2023-03-11T08:36:20.598Z,1.77
2023-03-11T08:40:22.390Z,1.73
2023-03-11T08:44:24.094Z,2.05
2023-03-11T08:48:26.137Z,1.90
2023-03-11T08:52:27.946Z,2.10
2023-03-11T08:56:30.101Z,1.83
2023-03-11T09:00:31.982Z,1.83
2023-03-11T09:04:33.736Z,2.05
2023-03-11T09:08:35.932Z,1.80
2023-03-11T09:12:39.388Z,1.70
2023-03-11T09:16:41.290Z,1.55
2023-03-11T09:20:44.038Z,1.70
2023-03-11T09:24:45.824Z,1.58
2023-03-11T09:28:49.390Z,1.73
2023-03-11T09:32:51.411Z,1.60
2023-03-11T09:36:53.220Z,2.08
2023-03-11T09:41:01.148Z,1.58
2023-03-11T09:45:24.881Z,1.92
2023-03-11T09:49:58.650Z,1.80
2023-03-11T09:54:08.789Z,1.80
2023-03-11T09:58:16.033Z,1.80
2023-03-11T10:02:20.223Z,1.67
2023-03-11T10:06:29.050Z,1.60
2023-03-11T10:10:39.560Z,1.60
2023-03-11T10:15:18.872Z,1.80
2023-03-11T10:19:22.750Z,1.63
2023-03-11T10:23:50.309Z,1.50
2023-03-11T10:27:58.855Z,1.75
2023-03-11T10:32:13.298Z,2.30
2023-03-11T10:36:24.357Z,1.60
2023-03-11T10:40:39.544Z,1.30
2023-03-11T10:44:42.887Z,1.40
2023-03-11T10:48:44.660Z,1.38
2023-03-11T10:53:05.085Z,1.60
2023-03-11T10:57:24.138Z,1.25
2023-03-11T11:01:28.883Z,1.40
2023-03-11T11:05:33.831Z,1.20
2023-03-11T11:09:35.611Z,1.50
2023-03-11T11:13:37.482Z,1.60
2023-03-11T11:17:40.393Z,1.48
2023-03-11T11:21:49.845Z,1.65
2023-03-11T11:25:58.722Z,1.70
2023-03-11T11:30:09.488Z,1.30
2023-03-11T11:34:30.835Z,1.70
2023-03-11T11:38:34.268Z,1.70
2023-03-11T11:42:38.785Z,1.35
2023-03-11T11:46:43.390Z,1.50
2023-03-11T11:50:51.145Z,1.60
2023-03-11T11:55:06.838Z,1.50
2023-03-11T11:59:19.392Z,1.60
2023-03-11T12:03:25.544Z,1.90
2023-03-11T12:08:04.596Z,1.77
2023-03-11T12:12:32.979Z,1.50
2023-03-11T12:16:41.038Z,1.40
2023-03-11T12:20:47.749Z,1.38
2023-03-11T12:25:22.317Z,1.80
2023-03-11T12:29:38.958Z,1.90
2023-03-11T12:33:49.024Z,1.87
2023-03-11T12:38:04.410Z,1.58
2023-03-11T12:42:16.551Z,1.67
2023-03-11T12:46:19.564Z,1.58
2023-03-11T12:50:40.931Z,1.80
2023-03-11T12:55:01.249Z,1.60
2023-03-11T12:59:18.214Z,1.65
2023-03-11T13:03:41.386Z,2.20
2023-03-11T13:08:12.293Z,1.77
2023-03-11T13:12:43.828Z,1.90
2023-03-11T13:16:46.883Z,1.67
2023-03-11T13:20:51.608Z,1.67
2023-03-11T13:24:53.433Z,1.60
2023-03-11T13:29:42.520Z,1.80
2023-03-11T13:34:16.354Z,1.98
2023-03-11T13:38:39.933Z,1.80
2023-03-11T13:42:49.166Z,1.80
2023-03-11T13:46:56.958Z,1.70
2023-03-11T13:51:13.191Z,1.90
2023-03-11T13:55:21.427Z,1.77
2023-03-11T13:59:24.234Z,1.80
2023-03-11T14:03:29.524Z,1.60
2023-03-11T14:07:38.458Z,1.75
2023-03-11T14:11:43.616Z,1.95
2023-03-11T14:15:52.500Z,1.80
2023-03-11T14:20:09.608Z,1.75
2023-03-11T14:24:20.838Z,1.85
2023-03-11T14:28:22.719Z,1.90
2023-03-11T14:32:30.414Z,2.42
2023-03-11T14:36:51.055Z,1.90
2023-03-11T14:41:00.385Z,1.77
2023-03-11T14:45:19.278Z,1.52
2023-03-11T14:49:23.567Z,2.00
2023-03-11T14:53:56.016Z,1.50
2023-03-11T14:58:06.737Z,2.30
2023-03-11T15:02:30.863Z,2.10
2023-03-11T15:06:35.022Z,1.90
2023-03-11T15:10:37.331Z,1.65
2023-03-11T15:14:50.217Z,1.70
2023-03-11T15:18:54.370Z,1.63
2023-03-11T15:23:05.398Z,1.60
2023-03-11T15:27:20.783Z,1.52
2023-03-11T15:31:22.476Z,1.58
2023-03-11T15:35:29.247Z,2.00
2023-03-11T15:39:30.973Z,1.83
2023-03-11T15:43:46.770Z,1.77
2023-03-11T15:47:49.399Z,1.65
2023-03-11T15:51:51.172Z,2.10
2023-03-11T15:56:06.000Z,1.80
2023-03-11T16:00:21.101Z,1.60
2023-03-11T16:04:22.973Z,1.70
2023-03-11T16:08:24.817Z,1.88
2023-03-11T16:12:26.617Z,2.00
2023-03-11T16:16:28.504Z,2.30
2023-03-11T16:20:38.800Z,2.00
2023-03-11T16:24:40.544Z,1.70
2023-03-11T16:28:42.671Z,2.00
2023-03-11T16:32:44.542Z,2.10
2023-03-11T16:36:46.385Z,1.80
2023-03-11T16:40:57.868Z,1.60
2023-03-11T16:44:59.622Z,1.90
2023-03-11T16:49:02.069Z,1.48
2023-03-11T16:53:03.980Z,1.80
2023-03-11T16:57:05.712Z,1.73
2023-03-11T17:01:07.461Z,2.00
2023-03-11T17:05:09.656Z,1.85
2023-03-11T17:09:11.462Z,2.30
2023-03-11T17:13:14.895Z,2.38
2023-03-11T17:17:18.650Z,2.30
2023-03-11T17:21:20.496Z,1.95
2023-03-11T17:25:22.637Z,1.90
2023-03-11T17:29:24.502Z,2.30
2023-03-11T17:33:26.784Z,2.22
2023-03-11T17:37:28.594Z,1.65
2023-03-11T17:41:30.442Z,2.53
2023-03-11T17:45:32.214Z,2.20
2023-03-11T17:49:34.075Z,2.22
2023-03-11T17:53:37.996Z,2.42
2023-03-11T17:57:45.560Z,2.40
2023-03-11T18:01:47.905Z,2.45
2023-03-11T18:06:03.119Z,2.33
2023-03-11T18:10:06.730Z,2.10
2023-03-11T18:14:08.541Z,2.33
2023-03-11T18:18:10.312Z,2.20
2023-03-11T18:22:12.390Z,2.00
2023-03-11T18:26:17.552Z,1.90
2023-03-11T18:30:19.339Z,1.83
2023-03-11T18:34:22.242Z,2.00
2023-03-11T18:38:24.546Z,2.30
2023-03-11T18:42:26.430Z,2.50
2023-03-11T18:46:34.020Z,1.67
2023-03-11T18:50:35.872Z,1.55
2023-03-11T18:54:37.700Z,1.52
2023-03-11T18:58:39.648Z,1.80
2023-03-11T19:02:41.530Z,2.28
2023-03-11T19:06:43.348Z,1.60
2023-03-11T19:10:45.215Z,1.70
2023-03-11T19:14:47.079Z,1.60
2023-03-11T19:18:50.264Z,2.10
2023-03-11T19:22:53.596Z,1.80
2023-03-11T19:26:55.428Z,2.53
2023-03-11T19:30:58.887Z,2.20
2023-03-11T19:35:00.740Z,2.10
2023-03-11T19:39:03.236Z,1.80
2023-03-11T19:43:05.953Z,1.90
2023-03-11T19:47:07.920Z,1.60
2023-03-11T19:51:11.929Z,1.40
2023-03-11T19:55:13.726Z,1.55
2023-03-11T19:59:15.638Z,1.50
2023-03-11T20:03:18.038Z,1.60
2023-03-11T20:07:19.956Z,1.42
2023-03-11T20:11:22.123Z,1.42
2023-03-11T20:15:23.964Z,1.50
2023-03-11T20:19:25.918Z,1.50
2023-03-11T20:23:27.655Z,1.38
2023-03-11T20:27:29.825Z,1.38
2023-03-11T20:31:32.130Z,1.30
2023-03-11T20:35:34.241Z,1.40
2023-03-11T20:39:37.929Z,1.50
2023-03-11T20:43:40.583Z,1.38
2023-03-11T20:47:43.958Z,1.50
2023-03-11T20:51:48.143Z,1.70
2023-03-11T20:55:50.035Z,1.45
2023-03-11T20:59:52.084Z,1.45
2023-03-11T21:03:56.004Z,1.45
2023-03-11T21:07:57.883Z,1.67
2023-03-11T21:12:01.023Z,1.70
2023-03-11T21:16:04.478Z,1.70
2023-03-11T21:20:06.674Z,1.85
2023-03-11T21:24:10.664Z,1.48
2023-03-11T21:28:14.024Z,1.50
2023-03-11T21:32:15.903Z,1.75
2023-03-11T21:36:18.389Z,1.90
2023-03-11T21:40:21.050Z,1.80
2023-03-11T21:44:22.872Z,1.80
2023-03-11T21:48:24.864Z,2.30
2023-03-11T21:52:27.001Z,2.00
2023-03-11T21:56:29.420Z,1.65
2023-03-11T22:00:31.204Z,1.77
2023-03-11T22:04:33.092Z,1.63
2023-03-11T22:08:35.286Z,1.52
2023-03-11T22:12:37.193Z,1.90
2023-03-11T22:16:39.153Z,2.10
2023-03-11T22:20:41.583Z,2.30
2023-03-11T22:24:43.376Z,2.28
2023-03-11T22:28:45.163Z,2.08
2023-03-11T22:32:46.974Z,1.90
2023-03-11T22:36:48.983Z,2.33
2023-03-11T22:40:51.156Z,1.90
2023-03-11T22:44:52.937Z,1.83
2023-03-11T22:48:54.896Z,1.80
2023-03-11T22:52:56.708Z,1.67
2023-03-11T22:56:58.489Z,1.70
2023-03-11T23:01:01.134Z,1.60
2023-03-11T23:05:03.422Z,1.50
2023-03-11T23:09:05.966Z,1.67
2023-03-11T23:13:08.193Z,1.75
2023-03-11T23:17:10.374Z,1.50
2023-03-11T23:21:19.210Z,1.50
2023-03-11T23:25:21.105Z,1.77
2023-03-11T23:29:22.977Z,1.33
2023-03-11T23:33:24.702Z,1.35
2023-03-11T23:37:26.490Z,1.20
2023-03-11T23:41:29.194Z,1.70
2023-03-11T23:45:30.984Z,1.88
2023-03-11T23:49:32.901Z,1.42
2023-03-11T23:53:35.575Z,1.90
2023-03-11T23:57:38.123Z,2.15
